sensor_id;sensor_type;location;lat;lon;timestamp;pressure;altitude;pressure_sealevel;temperature;humidity
8416;BME280;4245;42.120;24.732;2022-11-15T00:02:15;100030.09;;;7.26;100.00
8416;BME280;4245;42.120;24.732;2022-11-15T00:04:42;100037.16;;;7.25;100.00
8416;BME280;4245;42.120;24.732;2022-11-15T00:07:09;100032.66;;;7.27;100.00
8416;BME280;4245;42.120;24.732;2022-11-15T00:09:37;100028.03;;;7.32;100.00
8416;BME280;4245;42.120;24.732;2022-11-15T00:12:05;100029.78;;;7.13;100.00
8416;BME280;4245;42.120;24.732;2022-11-15T00:14:32;100034.78;;;7.19;100.00
8416;BME280;4245;42.120;24.732;2022-11-15T00:16:59;100026.72;;;7.22;100.00
8416;BME280;4245;42.120;24.732;2022-11-15T00:19:26;100030.59;;;7.34;100.00
8416;BME280;4245;42.120;24.732;2022-11-15T00:21:52;100037.81;;;7.30;100.00
8416;BME280;4245;42.120;24.732;2022-11-15T00:24:19;100032.84;;;7.43;100.00
8416;BME280;4245;42.120;24.732;2022-11-15T00:26:48;100035.00;;;7.54;100.00
8416;BME280;4245;42.120;24.732;2022-11-15T00:29:15;100028.25;;;7.47;100.00
8416;BME280;4245;42.120;24.732;2022-11-15T00:31:41;100031.06;;;7.43;100.00
8416;BME280;4245;42.120;24.732;2022-11-15T00:34:09;100027.91;;;7.54;100.00
8416;BME280;4245;42.120;24.732;2022-11-15T00:36:36;100027.13;;;7.52;100.00
8416;BME280;4245;42.120;24.732;2022-11-15T00:39:03;100025.13;;;7.57;100.00
8416;BME280;4245;42.120;24.732;2022-11-15T00:41:31;100026.84;;;7.58;100.00
8416;BME280;4245;42.120;24.732;2022-11-15T00:43:59;100024.84;;;7.63;100.00
8416;BME280;4245;42.120;24.732;2022-11-15T00:46:26;100024.25;;;7.75;100.00
8416;BME280;4245;42.120;24.732;2022-11-15T00:48:53;100018.97;;;7.75;100.00
8416;BME280;4245;42.120;24.732;2022-11-15T00:51:20;100023.78;;;7.67;100.00
8416;BME280;4245;42.120;24.732;2022-11-15T00:53:47;100022.91;;;7.67;100.00
8416;BME280;4245;42.120;24.732;2022-11-15T00:56:14;100017.41;;;7.71;100.00
8416;BME280;4245;42.120;24.732;2022-11-15T00:58:41;100023.34;;;7.76;100.00
8416;BME280;4245;42.120;24.732;2022-11-15T01:01:11;100015.78;;;7.69;100.00
8416;BME280;4245;42.120;24.732;2022-11-15T01:03:39;100015.47;;;7.75;100.00
8416;BME280;4245;42.120;24.732;2022-11-15T01:06:07;100018.13;;;7.75;100.00
8416;BME280;4245;42.120;24.732;2022-11-15T01:08:35;100013.56;;;7.78;100.00
8416;BME280;4245;42.120;24.732;2022-11-15T01:11:03;100011.56;;;7.83;100.00
8416;BME280;4245;42.120;24.732;2022-11-15T01:13:31;100012.19;;;7.89;100.00
8416;BME280;4245;42.120;24.732;2022-11-15T01:15:58;100012.84;;;7.94;100.00
8416;BME280;4245;42.120;24.732;2022-11-15T01:18:27;100011.13;;;7.93;100.00
8416;BME280;4245;42.120;24.732;2022-11-15T01:20:54;100010.75;;;8.00;100.00
8416;BME280;4245;42.120;24.732;2022-11-15T01:23:21;100010.53;;;8.05;100.00
8416;BME280;4245;42.120;24.732;2022-11-15T01:25:48;99996.81;;;7.97;100.00
8416;BME280;4245;42.120;24.732;2022-11-15T01:28:15;99999.22;;;8.01;100.00
8416;BME280;4245;42.120;24.732;2022-11-15T01:30:42;100005.09;;;8.08;100.00
8416;BME280;4245;42.120;24.732;2022-11-15T01:33:09;100007.59;;;8.11;100.00
8416;BME280;4245;42.120;24.732;2022-11-15T01:35:39;100007.09;;;8.03;100.00
8416;BME280;4245;42.120;24.732;2022-11-15T01:38:07;100004.47;;;8.03;100.00
8416;BME280;4245;42.120;24.732;2022-11-15T01:40:34;100001.50;;;8.09;100.00
8416;BME280;4245;42.120;24.732;2022-11-15T01:43:19;100002.81;;;8.00;100.00
8416;BME280;4245;42.120;24.732;2022-11-15T01:45:49;99995.16;;;8.13;100.00
8416;BME280;4245;42.120;24.732;2022-11-15T01:48:18;99988.25;;;8.09;100.00
8416;BME280;4245;42.120;24.732;2022-11-15T01:50:47;99996.06;;;8.12;100.00
8416;BME280;4245;42.120;24.732;2022-11-15T01:53:15;99993.28;;;8.15;100.00
8416;BME280;4245;42.120;24.732;2022-11-15T01:55:42;99991.06;;;8.06;100.00
8416;BME280;4245;42.120;24.732;2022-11-15T01:58:10;99988.72;;;8.00;100.00
8416;BME280;4245;42.120;24.732;2022-11-15T02:00:37;99990.91;;;8.09;100.00
8416;BME280;4245;42.120;24.732;2022-11-15T02:03:04;99995.50;;;8.05;100.00
8416;BME280;4245;42.120;24.732;2022-11-15T02:05:31;99998.03;;;7.90;100.00
8416;BME280;4245;42.120;24.732;2022-11-15T02:08:01;99996.75;;;7.98;100.00
8416;BME280;4245;42.120;24.732;2022-11-15T02:10:28;99993.88;;;8.03;100.00
8416;BME280;4245;42.120;24.732;2022-11-15T02:12:56;99999.31;;;8.00;100.00
8416;BME280;4245;42.120;24.732;2022-11-15T02:15:33;99985.16;;;8.01;100.00
8416;BME280;4245;42.120;24.732;2022-11-15T02:18:11;99990.50;;;7.99;100.00
8416;BME280;4245;42.120;24.732;2022-11-15T02:20:51;99984.97;;;8.04;100.00
8416;BME280;4245;42.120;24.732;2022-11-15T02:24:07;99987.16;;;7.96;100.00
8416;BME280;4245;42.120;24.732;2022-11-15T02:27:03;99985.16;;;8.01;100.00
8416;BME280;4245;42.120;24.732;2022-11-15T02:29:58;99987.63;;;8.04;100.00
8416;BME280;4245;42.120;24.732;2022-11-15T02:32:35;99981.97;;;8.11;100.00
8416;BME280;4245;42.120;24.732;2022-11-15T02:35:13;99987.56;;;8.05;100.00
8416;BME280;4245;42.120;24.732;2022-11-15T02:37:45;99988.44;;;8.06;100.00
8416;BME280;4245;42.120;24.732;2022-11-15T02:40:25;99977.50;;;7.95;100.00
8416;BME280;4245;42.120;24.732;2022-11-15T02:42:56;99985.09;;;8.02;100.00
8416;BME280;4245;42.120;24.732;2022-11-15T02:45:46;99985.78;;;8.06;100.00
8416;BME280;4245;42.120;24.732;2022-11-15T02:48:17;99979.22;;;7.96;100.00
8416;BME280;4245;42.120;24.732;2022-11-15T02:50:45;99977.06;;;8.04;100.00
8416;BME280;4245;42.120;24.732;2022-11-15T02:53:14;99973.19;;;8.11;100.00
8416;BME280;4245;42.120;24.732;2022-11-15T02:55:44;99967.91;;;8.11;100.00
8416;BME280;4245;42.120;24.732;2022-11-15T02:58:26;99981.81;;;8.14;100.00
8416;BME280;4245;42.120;24.732;2022-11-15T03:01:02;99976.75;;;8.10;100.00
8416;BME280;4245;42.120;24.732;2022-11-15T03:03:46;99967.66;;;8.15;100.00
8416;BME280;4245;42.120;24.732;2022-11-15T03:06:24;99972.44;;;8.26;100.00
8416;BME280;4245;42.120;24.732;2022-11-15T03:09:01;99981.66;;;8.36;100.00
8416;BME280;4245;42.120;24.732;2022-11-15T03:11:32;99976.06;;;8.23;100.00
8416;BME280;4245;42.120;24.732;2022-11-15T03:14:10;99974.88;;;8.31;100.00
8416;BME280;4245;42.120;24.732;2022-11-15T03:16:45;99973.16;;;8.29;100.00
8416;BME280;4245;42.120;24.732;2022-11-15T03:19:21;99975.22;;;8.23;100.00
8416;BME280;4245;42.120;24.732;2022-11-15T03:21:55;99984.00;;;8.42;100.00
8416;BME280;4245;42.120;24.732;2022-11-15T03:24:23;99981.91;;;8.13;100.00
8416;BME280;4245;42.120;24.732;2022-11-15T03:26:53;99979.09;;;8.16;100.00
8416;BME280;4245;42.120;24.732;2022-11-15T03:29:24;99977.41;;;8.15;100.00
8416;BME280;4245;42.120;24.732;2022-11-15T03:31:56;99970.25;;;8.17;100.00
8416;BME280;4245;42.120;24.732;2022-11-15T03:34:29;99963.53;;;8.10;100.00
8416;BME280;4245;42.120;24.732;2022-11-15T03:36:57;99960.44;;;8.19;100.00
8416;BME280;4245;42.120;24.732;2022-11-15T03:39:25;99964.72;;;8.21;100.00
8416;BME280;4245;42.120;24.732;2022-11-15T03:42:06;99957.53;;;8.23;100.00
8416;BME280;4245;42.120;24.732;2022-11-15T03:44:43;99962.38;;;8.15;100.00
8416;BME280;4245;42.120;24.732;2022-11-15T03:47:17;99958.34;;;8.08;100.00
8416;BME280;4245;42.120;24.732;2022-11-15T03:49:51;99951.09;;;8.12;100.00
8416;BME280;4245;42.120;24.732;2022-11-15T03:52:19;99950.06;;;8.14;100.00
8416;BME280;4245;42.120;24.732;2022-11-15T03:54:49;99943.63;;;8.20;100.00
8416;BME280;4245;42.120;24.732;2022-11-15T03:57:16;99951.09;;;8.29;100.00
8416;BME280;4245;42.120;24.732;2022-11-15T03:59:43;99942.81;;;8.37;100.00
8416;BME280;4245;42.120;24.732;2022-11-15T04:02:10;99937.22;;;8.24;100.00
8416;BME280;4245;42.120;24.732;2022-11-15T04:04:37;99938.16;;;8.06;100.00
8416;BME280;4245;42.120;24.732;2022-11-15T04:07:06;99938.50;;;8.17;100.00
8416;BME280;4245;42.120;24.732;2022-11-15T04:09:33;99931.72;;;8.11;100.00
8416;BME280;4245;42.120;24.732;2022-11-15T04:12:20;99930.47;;;8.18;100.00
8416;BME280;4245;42.120;24.732;2022-11-15T04:14:56;99930.03;;;8.27;100.00
8416;BME280;4245;42.120;24.732;2022-11-15T04:17:40;99922.88;;;8.29;100.00
8416;BME280;4245;42.120;24.732;2022-11-15T04:20:10;99915.31;;;8.22;100.00
8416;BME280;4245;42.120;24.732;2022-11-15T04:22:57;99915.63;;;8.33;100.00
8416;BME280;4245;42.120;24.732;2022-11-15T04:25:43;99922.09;;;8.27;100.00
8416;BME280;4245;42.120;24.732;2022-11-15T04:28:11;99918.66;;;8.08;100.00
8416;BME280;4245;42.120;24.732;2022-11-15T04:30:38;99922.06;;;8.10;100.00
8416;BME280;4245;42.120;24.732;2022-11-15T04:33:05;99915.59;;;7.99;100.00
8416;BME280;4245;42.120;24.732;2022-11-15T04:35:32;99915.19;;;8.06;100.00
8416;BME280;4245;42.120;24.732;2022-11-15T04:38:02;99918.47;;;8.11;100.00
8416;BME280;4245;42.120;24.732;2022-11-15T04:40:29;99912.31;;;8.11;100.00
8416;BME280;4245;42.120;24.732;2022-11-15T04:42:56;99917.00;;;8.06;100.00
8416;BME280;4245;42.120;24.732;2022-11-15T04:45:23;99917.16;;;8.03;100.00
8416;BME280;4245;42.120;24.732;2022-11-15T04:47:50;99922.75;;;7.97;100.00
8416;BME280;4245;42.120;24.732;2022-11-15T04:50:18;99919.88;;;8.01;100.00
8416;BME280;4245;42.120;24.732;2022-11-15T04:52:50;99916.13;;;7.88;100.00
8416;BME280;4245;42.120;24.732;2022-11-15T04:55:19;99910.66;;;7.91;100.00
8416;BME280;4245;42.120;24.732;2022-11-15T04:57:46;99913.38;;;7.90;100.00
8416;BME280;4245;42.120;24.732;2022-11-15T05:00:15;99909.19;;;7.85;100.00
8416;BME280;4245;42.120;24.732;2022-11-15T05:02:43;99910.31;;;7.80;100.00
8416;BME280;4245;42.120;24.732;2022-11-15T05:05:36;99914.06;;;7.76;100.00
8416;BME280;4245;42.120;24.732;2022-11-15T05:08:03;99905.53;;;7.88;100.00
8416;BME280;4245;42.120;24.732;2022-11-15T05:10:32;99909.81;;;7.91;100.00
8416;BME280;4245;42.120;24.732;2022-11-15T05:12:58;99916.34;;;8.01;100.00
8416;BME280;4245;42.120;24.732;2022-11-15T05:15:25;99915.09;;;7.91;100.00
8416;BME280;4245;42.120;24.732;2022-11-15T05:17:57;99917.28;;;7.82;100.00
8416;BME280;4245;42.120;24.732;2022-11-15T05:20:24;99914.69;;;7.81;100.00
8416;BME280;4245;42.120;24.732;2022-11-15T05:22:52;99918.03;;;7.84;100.00
8416;BME280;4245;42.120;24.732;2022-11-15T05:25:19;99913.69;;;7.83;100.00
8416;BME280;4245;42.120;24.732;2022-11-15T05:27:47;99912.63;;;7.88;100.00
8416;BME280;4245;42.120;24.732;2022-11-15T05:30:15;99912.94;;;7.99;100.00
8416;BME280;4245;42.120;24.732;2022-11-15T05:32:42;99912.09;;;7.98;100.00
8416;BME280;4245;42.120;24.732;2022-11-15T05:35:13;99906.34;;;8.07;100.00
8416;BME280;4245;42.120;24.732;2022-11-15T05:37:42;99911.59;;;7.90;100.00
8416;BME280;4245;42.120;24.732;2022-11-15T05:40:09;99914.81;;;7.97;100.00
8416;BME280;4245;42.120;24.732;2022-11-15T05:42:36;99924.59;;;7.95;100.00
8416;BME280;4245;42.120;24.732;2022-11-15T05:45:06;99920.44;;;8.08;100.00
8416;BME280;4245;42.120;24.732;2022-11-15T05:47:36;99920.34;;;8.09;100.00
8416;BME280;4245;42.120;24.732;2022-11-15T05:50:06;99922.75;;;8.14;100.00
8416;BME280;4245;42.120;24.732;2022-11-15T05:52:35;99927.91;;;8.17;100.00
8416;BME280;4245;42.120;24.732;2022-11-15T05:55:06;99928.44;;;8.23;100.00
8416;BME280;4245;42.120;24.732;2022-11-15T05:57:34;99931.31;;;8.19;100.00
8416;BME280;4245;42.120;24.732;2022-11-15T06:00:01;99924.78;;;8.26;100.00
8416;BME280;4245;42.120;24.732;2022-11-15T06:02:30;99937.59;;;8.35;100.00
8416;BME280;4245;42.120;24.732;2022-11-15T06:04:57;99939.09;;;8.41;100.00
8416;BME280;4245;42.120;24.732;2022-11-15T06:07:24;99933.16;;;8.53;100.00
8416;BME280;4245;42.120;24.732;2022-11-15T06:09:51;99939.00;;;8.59;100.00
8416;BME280;4245;42.120;24.732;2022-11-15T06:12:18;99942.44;;;8.61;100.00
8416;BME280;4245;42.120;24.732;2022-11-15T06:14:45;99941.22;;;8.67;100.00
8416;BME280;4245;42.120;24.732;2022-11-15T06:17:12;99937.50;;;8.71;100.00
8416;BME280;4245;42.120;24.732;2022-11-15T06:19:40;99940.19;;;8.87;100.00
8416;BME280;4245;42.120;24.732;2022-11-15T06:22:07;99943.31;;;8.78;100.00
8416;BME280;4245;42.120;24.732;2022-11-15T06:24:34;99951.38;;;8.59;100.00
8416;BME280;4245;42.120;24.732;2022-11-15T06:27:01;99945.13;;;8.43;100.00
8416;BME280;4245;42.120;24.732;2022-11-15T06:29:28;99954.97;;;8.41;100.00
8416;BME280;4245;42.120;24.732;2022-11-15T06:31:55;99943.50;;;8.40;100.00
8416;BME280;4245;42.120;24.732;2022-11-15T06:34:22;99947.09;;;8.56;100.00
8416;BME280;4245;42.120;24.732;2022-11-15T06:36:51;99939.53;;;8.66;100.00
8416;BME280;4245;42.120;24.732;2022-11-15T06:39:17;99946.22;;;8.73;100.00
8416;BME280;4245;42.120;24.732;2022-11-15T06:41:44;99938.88;;;8.78;100.00
8416;BME280;4245;42.120;24.732;2022-11-15T06:44:11;99935.88;;;9.01;100.00
8416;BME280;4245;42.120;24.732;2022-11-15T06:46:38;99942.13;;;9.33;100.00
8416;BME280;4245;42.120;24.732;2022-11-15T06:49:05;99944.50;;;9.69;100.00
8416;BME280;4245;42.120;24.732;2022-11-15T06:51:32;99954.13;;;9.87;100.00
8416;BME280;4245;42.120;24.732;2022-11-15T06:54:00;99953.75;;;9.93;100.00
8416;BME280;4245;42.120;24.732;2022-11-15T06:56:27;99946.81;;;10.07;100.00
8416;BME280;4245;42.120;24.732;2022-11-15T06:58:55;99946.63;;;10.25;100.00
8416;BME280;4245;42.120;24.732;2022-11-15T07:01:22;99948.09;;;10.31;100.00
8416;BME280;4245;42.120;24.732;2022-11-15T07:03:49;99946.13;;;10.49;100.00
8416;BME280;4245;42.120;24.732;2022-11-15T07:06:16;99944.22;;;10.51;100.00
8416;BME280;4245;42.120;24.732;2022-11-15T07:08:43;99939.34;;;10.59;100.00
8416;BME280;4245;42.120;24.732;2022-11-15T07:11:12;99942.31;;;10.68;100.00
8416;BME280;4245;42.120;24.732;2022-11-15T07:13:40;99933.28;;;10.85;100.00
8416;BME280;4245;42.120;24.732;2022-11-15T07:16:08;99937.31;;;11.06;100.00
8416;BME280;4245;42.120;24.732;2022-11-15T07:18:36;99935.31;;;11.24;100.00
8416;BME280;4245;42.120;24.732;2022-11-15T07:21:04;99937.22;;;11.22;100.00
8416;BME280;4245;42.120;24.732;2022-11-15T07:23:32;99937.22;;;11.36;100.00
8416;BME280;4245;42.120;24.732;2022-11-15T07:25:59;99944.97;;;11.53;100.00
8416;BME280;4245;42.120;24.732;2022-11-15T07:28:27;99939.53;;;11.83;100.00
8416;BME280;4245;42.120;24.732;2022-11-15T07:30:54;99949.00;;;12.41;100.00
8416;BME280;4245;42.120;24.732;2022-11-15T07:33:21;99939.19;;;13.06;100.00
8416;BME280;4245;42.120;24.732;2022-11-15T07:35:48;99941.88;;;13.68;100.00
8416;BME280;4245;42.120;24.732;2022-11-15T07:38:16;99939.59;;;14.11;100.00
8416;BME280;4245;42.120;24.732;2022-11-15T07:40:45;99942.69;;;14.41;100.00
8416;BME280;4245;42.120;24.732;2022-11-15T07:43:12;99931.84;;;14.66;100.00
8416;BME280;4245;42.120;24.732;2022-11-15T07:45:42;99935.19;;;15.03;100.00
8416;BME280;4245;42.120;24.732;2022-11-15T07:48:09;99937.25;;;15.11;100.00
8416;BME280;4245;42.120;24.732;2022-11-15T07:50:36;99939.25;;;15.53;100.00
8416;BME280;4245;42.120;24.732;2022-11-15T07:53:03;99936.38;;;15.88;97.47
8416;BME280;4245;42.120;24.732;2022-11-15T07:55:30;99929.97;;;15.80;96.69
8416;BME280;4245;42.120;24.732;2022-11-15T07:58:01;99927.06;;;15.72;97.35
8416;BME280;4245;42.120;24.732;2022-11-15T08:00:29;99931.88;;;15.89;96.55
8416;BME280;4245;42.120;24.732;2022-11-15T08:03:03;99929.91;;;16.02;89.83
8416;BME280;4245;42.120;24.732;2022-11-15T08:05:30;99932.69;;;16.12;82.28
8416;BME280;4245;42.120;24.732;2022-11-15T08:07:58;99928.31;;;16.11;81.10
8416;BME280;4245;42.120;24.732;2022-11-15T08:10:25;99931.47;;;16.36;74.36
8416;BME280;4245;42.120;24.732;2022-11-15T08:12:59;99920.31;;;16.63;71.67
8416;BME280;4245;42.120;24.732;2022-11-15T08:15:27;99920.22;;;16.95;70.33
8416;BME280;4245;42.120;24.732;2022-11-15T08:17:55;99917.28;;;17.28;68.53
8416;BME280;4245;42.120;24.732;2022-11-15T08:20:24;99924.84;;;17.74;66.34
8416;BME280;4245;42.120;24.732;2022-11-15T08:22:52;99914.00;;;17.95;64.67
8416;BME280;4245;42.120;24.732;2022-11-15T08:25:18;99923.38;;;18.10;62.94
8416;BME280;4245;42.120;24.732;2022-11-15T08:27:45;99917.72;;;18.13;61.95
8416;BME280;4245;42.120;24.732;2022-11-15T08:30:13;99915.00;;;17.94;61.85
8416;BME280;4245;42.120;24.732;2022-11-15T08:32:41;99919.88;;;18.58;60.11
8416;BME280;4245;42.120;24.732;2022-11-15T08:35:08;99915.53;;;19.03;57.64
8416;BME280;4245;42.120;24.732;2022-11-15T08:37:37;99911.47;;;19.46;55.20
8416;BME280;4245;42.120;24.732;2022-11-15T08:40:05;99914.75;;;19.67;53.06
8416;BME280;4245;42.120;24.732;2022-11-15T08:42:32;99909.06;;;19.33;53.63
8416;BME280;4245;42.120;24.732;2022-11-15T08:44:59;99911.69;;;19.52;53.74
8416;BME280;4245;42.120;24.732;2022-11-15T08:47:26;99903.34;;;19.09;53.66
8416;BME280;4245;42.120;24.732;2022-11-15T08:49:53;99905.00;;;19.20;53.79
8416;BME280;4245;42.120;24.732;2022-11-15T08:52:20;99908.91;;;18.79;55.45
8416;BME280;4245;42.120;24.732;2022-11-15T08:54:49;99893.41;;;18.63;55.78
8416;BME280;4245;42.120;24.732;2022-11-15T08:57:16;99889.66;;;18.83;59.01
8416;BME280;4245;42.120;24.732;2022-11-15T08:59:43;99895.28;;;19.73;55.91
8416;BME280;4245;42.120;24.732;2022-11-15T09:02:12;99890.88;;;20.17;52.61
8416;BME280;4245;42.120;24.732;2022-11-15T09:04:40;99889.03;;;19.73;52.39
8416;BME280;4245;42.120;24.732;2022-11-15T09:07:09;99885.72;;;19.24;55.28
8416;BME280;4245;42.120;24.732;2022-11-15T09:09:36;99869.66;;;18.95;55.44
8416;BME280;4245;42.120;24.732;2022-11-15T09:12:05;99868.59;;;19.16;56.39
8416;BME280;4245;42.120;24.732;2022-11-15T09:14:33;99864.47;;;19.76;55.07
8416;BME280;4245;42.120;24.732;2022-11-15T09:17:01;99857.50;;;20.18;54.09
8416;BME280;4245;42.120;24.732;2022-11-15T09:19:28;99850.38;;;20.53;52.62
8416;BME280;4245;42.120;24.732;2022-11-15T09:21:55;99847.53;;;20.72;52.38
8416;BME280;4245;42.120;24.732;2022-11-15T09:24:22;99839.44;;;21.06;50.55
8416;BME280;4245;42.120;24.732;2022-11-15T09:26:50;99834.16;;;21.22;50.85
8416;BME280;4245;42.120;24.732;2022-11-15T09:29:19;99838.72;;;21.63;50.31
8416;BME280;4245;42.120;24.732;2022-11-15T09:31:45;99830.53;;;22.14;48.40
8416;BME280;4245;42.120;24.732;2022-11-15T09:34:12;99827.81;;;22.62;47.52
8416;BME280;4245;42.120;24.732;2022-11-15T09:36:39;99816.31;;;22.52;46.95
8416;BME280;4245;42.120;24.732;2022-11-15T09:39:06;99826.44;;;22.90;45.69
8416;BME280;4245;42.120;24.732;2022-11-15T09:41:50;99814.34;;;23.17;50.40
8416;BME280;4245;42.120;24.732;2022-11-15T09:44:41;99813.81;;;24.14;48.24
8416;BME280;4245;42.120;24.732;2022-11-15T09:47:28;99809.63;;;24.35;46.31
8416;BME280;4245;42.120;24.732;2022-11-15T09:49:59;99810.28;;;24.37;43.24
8416;BME280;4245;42.120;24.732;2022-11-15T09:52:27;99812.13;;;24.13;41.57
8416;BME280;4245;42.120;24.732;2022-11-15T09:54:54;99811.91;;;23.30;45.88
8416;BME280;4245;42.120;24.732;2022-11-15T09:57:37;99808.50;;;23.36;43.68
8416;BME280;4245;42.120;24.732;2022-11-15T10:00:13;99808.72;;;22.80;44.26
8416;BME280;4245;42.120;24.732;2022-11-15T10:02:54;99799.91;;;22.78;45.77
8416;BME280;4245;42.120;24.732;2022-11-15T10:05:25;99793.13;;;22.82;46.18
8416;BME280;4245;42.120;24.732;2022-11-15T10:07:57;99782.97;;;22.68;44.79
8416;BME280;4245;42.120;24.732;2022-11-15T10:10:32;99783.63;;;21.89;53.48
8416;BME280;4245;42.120;24.732;2022-11-15T10:13:03;99775.63;;;21.47;55.94
8416;BME280;4245;42.120;24.732;2022-11-15T10:15:31;99769.56;;;21.53;52.65
8416;BME280;4245;42.120;24.732;2022-11-15T10:18:09;99769.41;;;21.71;52.17
8416;BME280;4245;42.120;24.732;2022-11-15T10:20:46;99759.75;;;21.44;48.82
8416;BME280;4245;42.120;24.732;2022-11-15T10:23:16;99763.16;;;20.78;51.65
8416;BME280;4245;42.120;24.732;2022-11-15T10:25:43;99759.31;;;20.55;61.02
8416;BME280;4245;42.120;24.732;2022-11-15T10:28:14;99759.09;;;20.48;55.53
8416;BME280;4245;42.120;24.732;2022-11-15T10:30:45;99753.75;;;20.30;56.04
8416;BME280;4245;42.120;24.732;2022-11-15T10:33:24;99752.16;;;20.02;60.45
8416;BME280;4245;42.120;24.732;2022-11-15T10:36:19;99743.63;;;19.89;59.69
8416;BME280;4245;42.120;24.732;2022-11-15T10:38:53;99742.34;;;20.36;56.49
8416;BME280;4245;42.120;24.732;2022-11-15T10:41:22;99735.91;;;20.12;53.35
8416;BME280;4245;42.120;24.732;2022-11-15T10:44:11;99731.25;;;20.73;54.32
8416;BME280;4245;42.120;24.732;2022-11-15T10:46:40;99723.22;;;21.40;55.97
8416;BME280;4245;42.120;24.732;2022-11-15T10:49:13;99720.97;;;22.09;47.94
8416;BME280;4245;42.120;24.732;2022-11-15T10:51:43;99724.53;;;22.02;50.57
8416;BME280;4245;42.120;24.732;2022-11-15T10:54:12;99714.03;;;22.15;49.27
8416;BME280;4245;42.120;24.732;2022-11-15T10:56:40;99716.22;;;22.20;45.51
8416;BME280;4245;42.120;24.732;2022-11-15T10:59:15;99717.25;;;22.02;46.59
8416;BME280;4245;42.120;24.732;2022-11-15T11:01:47;99716.00;;;22.45;45.06
8416;BME280;4245;42.120;24.732;2022-11-15T11:04:15;99712.38;;;22.61;45.99
8416;BME280;4245;42.120;24.732;2022-11-15T11:06:52;99698.13;;;22.12;47.00
8416;BME280;4245;42.120;24.732;2022-11-15T11:09:31;99706.25;;;22.04;45.95
8416;BME280;4245;42.120;24.732;2022-11-15T11:11:59;99702.22;;;22.71;47.20
8416;BME280;4245;42.120;24.732;2022-11-15T11:14:28;99696.78;;;23.18;44.69
8416;BME280;4245;42.120;24.732;2022-11-15T11:17:03;99685.88;;;23.26;44.32
8416;BME280;4245;42.120;24.732;2022-11-15T11:22:30;99679.09;;;23.30;42.85
8416;BME280;4245;42.120;24.732;2022-11-15T11:25:15;99671.53;;;22.24;44.17
8416;BME280;4245;42.120;24.732;2022-11-15T11:27:54;99660.94;;;21.82;48.58
8416;BME280;4245;42.120;24.732;2022-11-15T11:30:43;99654.88;;;22.59;44.70
8416;BME280;4245;42.120;24.732;2022-11-15T11:33:19;99653.50;;;23.02;47.09
8416;BME280;4245;42.120;24.732;2022-11-15T11:35:55;99654.78;;;23.45;43.89
8416;BME280;4245;42.120;24.732;2022-11-15T11:38:45;99644.91;;;23.52;41.11
8416;BME280;4245;42.120;24.732;2022-11-15T11:41:36;99649.16;;;22.93;46.42
8416;BME280;4245;42.120;24.732;2022-11-15T11:44:12;99639.97;;;23.56;43.74
8416;BME280;4245;42.120;24.732;2022-11-15T11:46:54;99634.69;;;23.77;42.66
8416;BME280;4245;42.120;24.732;2022-11-15T11:49:26;99636.31;;;23.40;42.06
8416;BME280;4245;42.120;24.732;2022-11-15T11:51:58;99636.84;;;23.13;43.95
8416;BME280;4245;42.120;24.732;2022-11-15T11:54:32;99635.25;;;22.96;44.86
8416;BME280;4245;42.120;24.732;2022-11-15T11:57:05;99628.06;;;23.34;45.97
8416;BME280;4245;42.120;24.732;2022-11-15T11:59:39;99630.97;;;23.55;42.35
8416;BME280;4245;42.120;24.732;2022-11-15T12:02:14;99617.28;;;23.71;42.18
8416;BME280;4245;42.120;24.732;2022-11-15T12:04:48;99616.91;;;23.74;44.55
8416;BME280;4245;42.120;24.732;2022-11-15T12:07:20;99625.09;;;23.44;45.15
8416;BME280;4245;42.120;24.732;2022-11-15T12:09:59;99614.53;;;23.57;43.48
8416;BME280;4245;42.120;24.732;2022-11-15T12:12:34;99609.16;;;23.71;42.01
8416;BME280;4245;42.120;24.732;2022-11-15T12:15:04;99604.28;;;24.19;44.65
8416;BME280;4245;42.120;24.732;2022-11-15T12:17:38;99604.06;;;24.06;43.37
8416;BME280;4245;42.120;24.732;2022-11-15T12:20:15;99596.03;;;24.27;44.95
8416;BME280;4245;42.120;24.732;2022-11-15T12:22:46;99596.28;;;24.61;43.50
8416;BME280;4245;42.120;24.732;2022-11-15T12:25:17;99595.00;;;24.57;39.10
8416;BME280;4245;42.120;24.732;2022-11-15T12:27:50;99582.03;;;23.71;42.01
8416;BME280;4245;42.120;24.732;2022-11-15T12:30:19;99585.88;;;24.06;43.57
8416;BME280;4245;42.120;24.732;2022-11-15T12:32:51;99582.59;;;24.69;43.05
8416;BME280;4245;42.120;24.732;2022-11-15T12:35:32;99573.22;;;24.87;40.12
8416;BME280;4245;42.120;24.732;2022-11-15T12:38:00;99579.31;;;24.59;40.68
8416;BME280;4245;42.120;24.732;2022-11-15T12:40:30;99574.34;;;23.37;41.83
8416;BME280;4245;42.120;24.732;2022-11-15T12:45:47;99574.66;;;22.58;45.71
8416;BME280;4245;42.120;24.732;2022-11-15T12:48:48;99568.69;;;22.71;45.61
8416;BME280;4245;42.120;24.732;2022-11-15T12:51:18;99567.53;;;22.57;45.43
8416;BME280;4245;42.120;24.732;2022-11-15T12:53:46;99560.03;;;21.73;45.24
8416;BME280;4245;42.120;24.732;2022-11-15T12:56:21;99552.44;;;21.77;51.02
8416;BME280;4245;42.120;24.732;2022-11-15T12:58:54;99544.53;;;22.22;48.95
8416;BME280;4245;42.120;24.732;2022-11-15T13:04:34;99542.91;;;21.89;47.13
8416;BME280;4245;42.120;24.732;2022-11-15T13:07:04;99540.06;;;21.74;46.96
8416;BME280;4245;42.120;24.732;2022-11-15T13:09:53;99541.53;;;22.09;51.60
8416;BME280;4245;42.120;24.732;2022-11-15T13:12:52;99534.72;;;21.58;47.75
8416;BME280;4245;42.120;24.732;2022-11-15T13:18:30;99531.34;;;21.32;54.60
8416;BME280;4245;42.120;24.732;2022-11-15T13:20:59;99530.81;;;21.12;49.46
8416;BME280;4245;42.120;24.732;2022-11-15T13:23:27;99530.84;;;21.44;54.62
8416;BME280;4245;42.120;24.732;2022-11-15T13:26:08;99523.91;;;21.50;53.62
8416;BME280;4245;42.120;24.732;2022-11-15T13:28:39;99524.44;;;21.53;49.98
8416;BME280;4245;42.120;24.732;2022-11-15T13:31:28;99522.19;;;21.73;58.29
8416;BME280;4245;42.120;24.732;2022-11-15T13:33:58;99516.69;;;22.44;54.27
8416;BME280;4245;42.120;24.732;2022-11-15T13:36:28;99517.03;;;22.41;56.52
8416;BME280;4245;42.120;24.732;2022-11-15T13:39:03;99522.03;;;21.50;58.46
8416;BME280;4245;42.120;24.732;2022-11-15T13:41:32;99517.09;;;20.57;53.65
8416;BME280;4245;42.120;24.732;2022-11-15T13:44:00;99505.69;;;19.61;58.17